^^
B2 Weather Station Historical Data
Daily Summary for January 14, 2019 Units:  English    Metric   Both
Daily Weekly Monthly Yearly Custom
  High: Low: Average:
Temperature: 25.8 °F 11.8 °F 21.2 °F
Dew Point: 23.6 °F 8.9 °F 19 °F
Humidity: 93% 87% 91%
Wind Speed: 11.5mph 0.0mph 5mph
Wind Gust: 8.1mph - -
Wind- - WNW
Pressure: 30.44 in 30.31 in -
Precipitation: 0.00 in    
Historical Graphs
 
 
Tabular Data for January 14, 2019
Time Temperature Dew Point Pressure Wind Wind Speed Wind Gust Humidity Rainfall Rate (Hourly) solar
00:04 20.6 °F 18.4 °F 30.41 in NW 5.0 mph 3.5 mph 91% 0.00 in 0.00 W/m2
00:09 20.5 °F 18.3 °F 30.41 in NW 6.9 mph 3.1 mph 91% 0.00 in 0.00 W/m2
00:14 20.4 °F 18.2 °F 30.41 in NW 5.8 mph 3.3 mph 91% 0.00 in 0.00 W/m2
00:19 20.4 °F 18.2 °F 30.41 in North 6.0 mph 4.2 mph 91% 0.00 in 0.00 W/m2
00:24 20.3 °F 18.1 °F 30.41 in NW 5.0 mph 2.4 mph 91% 0.00 in 0.00 W/m2
00:29 20.3 °F 18.1 °F 30.41 in NW 4.6 mph 3.6 mph 91% 0.00 in 0.00 W/m2
00:34 20.3 °F 18.1 °F 30.41 in WNW 4.6 mph 2.0 mph 91% 0.00 in 0.00 W/m2
00:39 20.1 °F 17.9 °F 30.41 in NW 4.6 mph 1.6 mph 91% 0.00 in 0.00 W/m2
00:44 19.8 °F 17.6 °F 30.41 in NNW 3.5 mph 1.0 mph 91% 0.00 in 0.00 W/m2
00:49 19.6 °F 17.4 °F 30.41 in NW 3.5 mph 1.3 mph 91% 0.00 in 0.00 W/m2
00:54 19.4 °F 17.2 °F 30.41 in NW 4.6 mph 1.4 mph 91% 0.00 in 0.00 W/m2
00:59 19.4 °F 17.2 °F 30.40 in NW 3.5 mph 0.7 mph 91% 0.00 in 0.00 W/m2
01:04 19.3 °F 17.1 °F 30.41 in NW 2.3 mph 1.2 mph 91% 0.00 in 0.00 W/m2
01:09 19.2 °F 17.0 °F 30.41 in WNW 3.5 mph 1.3 mph 91% 0.00 in 0.00 W/m2
01:14 19.2 °F 17.0 °F 30.41 in NW 3.5 mph 1.7 mph 91% 0.00 in 0.00 W/m2
01:19 19.1 °F 16.9 °F 30.41 in NW 3.5 mph 2.0 mph 91% 0.00 in 0.00 W/m2
01:24 19.1 °F 16.9 °F 30.41 in NW 4.6 mph 2.0 mph 91% 0.00 in 0.00 W/m2
01:29 19.1 °F 16.9 °F 30.41 in WNW 5.0 mph 2.1 mph 91% 0.00 in 0.00 W/m2
01:34 18.9 °F 17.0 °F 30.41 in NW 3.5 mph 1.6 mph 92% 0.00 in 0.00 W/m2
01:39 18.8 °F 16.6 °F 30.42 in NW 3.5 mph 2.2 mph 91% 0.00 in 0.00 W/m2
01:44 18.8 °F 16.6 °F 30.42 in NW 4.6 mph 2.7 mph 91% 0.00 in 0.00 W/m2
01:49 18.7 °F 16.8 °F 30.42 in North 4.0 mph 2.3 mph 92% 0.00 in 0.00 W/m2
01:54 18.6 °F 16.7 °F 30.42 in NW 4.0 mph 2.8 mph 92% 0.00 in 0.00 W/m2
01:59 18.5 °F 16.6 °F 30.42 in NW 3.5 mph 1.9 mph 92% 0.00 in 0.00 W/m2
02:04 18.4 °F 16.5 °F 30.42 in WNW 4.0 mph 3.1 mph 92% 0.00 in 0.00 W/m2
02:09 18.3 °F 16.4 °F 30.43 in WNW 4.6 mph 2.3 mph 92% 0.00 in 0.00 W/m2
02:14 18.3 °F 16.4 °F 30.42 in WNW 3.5 mph 2.9 mph 92% 0.00 in 0.00 W/m2
02:19 18.3 °F 16.4 °F 30.42 in NW 4.6 mph 2.7 mph 92% 0.00 in 0.00 W/m2
02:24 18.2 °F 16.3 °F 30.43 in NW 5.0 mph 2.7 mph 92% 0.00 in 0.00 W/m2
02:29 18.2 °F 16.3 °F 30.43 in NW 3.5 mph 2.2 mph 92% 0.00 in 0.00 W/m2
02:34 18.0 °F 16.1 °F 30.43 in WNW 5.8 mph 2.1 mph 92% 0.00 in 0.00 W/m2
02:39 17.9 °F 16.0 °F 30.43 in NW 5.8 mph 4.1 mph 92% 0.00 in 0.00 W/m2
02:44 17.9 °F 16.0 °F 30.43 in WNW 4.6 mph 2.9 mph 92% 0.00 in 0.00 W/m2
02:49 17.9 °F 16.0 °F 30.43 in NW 5.8 mph 3.0 mph 92% 0.00 in 0.00 W/m2
02:54 17.8 °F 15.9 °F 30.43 in WNW 5.8 mph 2.5 mph 92% 0.00 in 0.00 W/m2
02:59 17.8 °F 15.9 °F 30.42 in WNW 4.6 mph 2.7 mph 92% 0.00 in 0.00 W/m2
03:04 17.7 °F 15.8 °F 30.42 in WNW 3.5 mph 2.6 mph 92% 0.00 in 0.00 W/m2
03:09 17.7 °F 15.8 °F 30.42 in WNW 4.6 mph 3.6 mph 92% 0.00 in 0.00 W/m2
03:14 17.7 °F 15.8 °F 30.42 in WNW 4.6 mph 3.2 mph 92% 0.00 in 0.00 W/m2
03:19 17.6 °F 15.7 °F 30.42 in WNW 4.6 mph 3.1 mph 92% 0.00 in 0.00 W/m2
03:24 17.5 °F 15.6 °F 30.42 in NNW 4.0 mph 2.5 mph 92% 0.00 in 0.00 W/m2
03:29 17.4 °F 15.5 °F 30.42 in North 5.0 mph 2.6 mph 92% 0.00 in 0.00 W/m2
03:34 17.4 °F 15.5 °F 30.42 in WNW 5.8 mph 3.7 mph 92% 0.00 in 0.00 W/m2
03:39 17.3 °F 15.4 °F 30.42 in WNW 5.8 mph 2.8 mph 92% 0.00 in 0.00 W/m2
03:44 17.3 °F 15.4 °F 30.42 in NW 4.6 mph 3.3 mph 92% 0.00 in 0.00 W/m2
03:49 17.2 °F 15.3 °F 30.42 in NW 3.5 mph 1.9 mph 92% 0.00 in 0.00 W/m2
03:54 17.1 °F 15.2 °F 30.42 in WNW 3.5 mph 2.2 mph 92% 0.00 in 0.00 W/m2
03:59 17.1 °F 15.2 °F 30.42 in NW 5.0 mph 2.0 mph 92% 0.00 in 0.00 W/m2
04:04 17.0 °F 15.1 °F 30.42 in WNW 3.5 mph 0.5 mph 92% 0.00 in 0.00 W/m2
04:09 16.9 °F 15.0 °F 30.42 in North 2.0 mph 0.7 mph 92% 0.00 in 0.00 W/m2
04:14 16.7 °F 14.8 °F 30.42 in WNW 1.2 mph 0.2 mph 92% 0.00 in 0.00 W/m2
04:19 16.6 °F 14.7 °F 30.42 in WNW 3.5 mph 1.6 mph 92% 0.00 in 0.00 W/m2
04:24 16.5 °F 14.6 °F 30.42 in West 3.5 mph 1.1 mph 92% 0.00 in 0.00 W/m2
04:29 16.6 °F 14.7 °F 30.42 in WNW 3.5 mph 1.7 mph 92% 0.00 in 0.00 W/m2
04:34 16.6 °F 14.7 °F 30.42 in NW 3.5 mph 3.0 mph 92% 0.00 in 0.00 W/m2
04:39 16.8 °F 15.1 °F 30.42 in West 3.5 mph 2.0 mph 93% 0.00 in 0.00 W/m2
04:44 17.1 °F 15.4 °F 30.42 in NW 6.9 mph 3.5 mph 93% 0.00 in 0.00 W/m2
04:49 17.5 °F 15.8 °F 30.42 in NW 6.9 mph 3.9 mph 93% 0.00 in 0.00 W/m2
04:54 18.1 °F 16.4 °F 30.42 in NW 4.6 mph 3.1 mph 93% 0.00 in 0.00 W/m2
04:59 18.5 °F 16.8 °F 30.42 in NW 6.0 mph 3.0 mph 93% 0.00 in 0.00 W/m2
05:04 19.0 °F 17.3 °F 30.42 in NW 5.8 mph 3.8 mph 93% 0.00 in 0.00 W/m2
05:09 19.3 °F 17.6 °F 30.42 in NNW 7.0 mph 4.7 mph 93% 0.00 in 0.00 W/m2
05:14 19.4 °F 17.7 °F 30.42 in NW 5.8 mph 1.7 mph 93% 0.00 in 0.00 W/m2
05:19 19.3 °F 17.4 °F 30.43 in WNW 3.5 mph 1.5 mph 92% 0.00 in 0.00 W/m2
05:24 19.1 °F 17.2 °F 30.43 in NW 3.5 mph 2.6 mph 92% 0.00 in 0.00 W/m2
05:29 19.0 °F 17.1 °F 30.42 in West 3.5 mph 2.6 mph 92% 0.00 in 0.00 W/m2
05:34 19.0 °F 17.1 °F 30.42 in NW 4.0 mph 2.6 mph 92% 0.00 in 0.00 W/m2
05:39 18.9 °F 17.0 °F 30.43 in WNW 3.5 mph 2.1 mph 92% 0.00 in 0.00 W/m2
05:44 18.6 °F 16.7 °F 30.43 in WNW 4.0 mph 1.4 mph 92% 0.00 in 0.00 W/m2
05:49 18.3 °F 16.4 °F 30.43 in NW 4.6 mph 2.9 mph 92% 0.00 in 0.00 W/m2
05:54 18.0 °F 16.1 °F 30.43 in NW 4.6 mph 1.1 mph 92% 0.00 in 0.00 W/m2
05:59 17.8 °F 15.9 °F 30.43 in WNW 3.5 mph 1.8 mph 92% 0.00 in 0.00 W/m2
06:04 17.7 °F 15.8 °F 30.43 in WNW 3.5 mph 1.4 mph 92% 0.00 in 0.00 W/m2
06:09 17.5 °F 15.6 °F 30.43 in NW 2.3 mph 0.1 mph 92% 0.00 in 0.00 W/m2
06:14 17.3 °F 15.4 °F 30.43 in WNW 3.5 mph 1.1 mph 92% 0.00 in 0.00 W/m2
06:19 17.2 °F 15.3 °F 30.43 in WNW 1.2 mph 0.3 mph 92% 0.00 in 0.00 W/m2
06:24 17.1 °F 15.2 °F 30.43 in NW 3.5 mph   92% 0.00 in 0.00 W/m2
06:29 17.1 °F 15.2 °F 30.43 in WNW 2.3 mph 0.4 mph 92% 0.00 in 0.00 W/m2
06:34 16.9 °F 15.0 °F 30.43 in WNW 2.3 mph   92% 0.00 in 0.00 W/m2
06:39 16.8 °F 14.9 °F 30.43 in Calm     92% 0.00 in 0.00 W/m2
06:44 16.6 °F 14.7 °F 30.43 in Calm     92% 0.00 in 0.00 W/m2
06:49 16.4 °F 14.5 °F 30.43 in Calm     92% 0.00 in 0.00 W/m2
06:54 15.6 °F 13.2 °F 30.43 in Calm     90% 0.00 in 0.00 W/m2
06:59 14.8 °F 12.4 °F 30.43 in Calm     90% 0.00 in 0.00 W/m2
07:04 14.4 °F 12.0 °F 30.43 in Calm     90% 0.00 in 0.00 W/m2
07:09 14.1 °F 11.7 °F 30.43 in Calm     90% 0.00 in 0.00 W/m2
07:14 13.7 °F 11.1 °F 30.43 in Calm     89% 0.00 in 0.00 W/m2
07:19 13.4 °F 11.0 °F 30.42 in Calm     90% 0.00 in 7.00 W/m2
07:24 12.9 °F 10.3 °F 30.42 in Calm     89% 0.00 in 9.00 W/m2
07:29 12.3 °F 9.4 °F 30.42 in Calm     88% 0.00 in 12.00 W/m2
07:34 11.9 °F 9.0 °F 30.42 in Calm     88% 0.00 in 18.00 W/m2
07:39 11.8 °F 8.9 °F 30.42 in Calm     88% 0.00 in 21.00 W/m2
07:44 12.1 °F 9.5 °F 30.42 in Calm     89% 0.00 in 26.00 W/m2
07:49 12.4 °F 9.8 °F 30.42 in Calm     89% 0.00 in 32.00 W/m2
07:54 12.9 °F 10.3 °F 30.42 in Calm     89% 0.00 in 46.00 W/m2
07:59 13.1 °F 10.5 °F 30.42 in Calm     89% 0.00 in 53.00 W/m2
08:04 13.0 °F 10.4 °F 30.43 in Calm     89% 0.00 in 60.00 W/m2
08:09 12.8 °F 10.2 °F 30.43 in Calm     89% 0.00 in 74.00 W/m2
08:14 12.8 °F 10.2 °F 30.43 in Calm     89% 0.00 in 90.00 W/m2
08:19 13.1 °F 10.7 °F 30.43 in Calm     90% 0.00 in 98.00 W/m2
08:24 13.5 °F 11.1 °F 30.43 in Calm     90% 0.00 in 105.00 W/m2
08:29 13.6 °F 11.2 °F 30.43 in Calm     90% 0.00 in 120.00 W/m2
08:34 13.7 °F 11.1 °F 30.43 in Calm     89% 0.00 in 158.00 W/m2
08:39 14.2 °F 11.8 °F 30.43 in Calm     90% 0.00 in 223.00 W/m2
08:44 14.6 °F 12.2 °F 30.43 in Calm     90% 0.00 in 141.00 W/m2
08:49 14.9 °F 12.5 °F 30.43 in Calm     90% 0.00 in 130.00 W/m2
08:54 15.0 °F 12.6 °F 30.43 in Calm     90% 0.00 in 135.00 W/m2
08:59 15.1 °F 12.7 °F 30.44 in Calm     90% 0.00 in 134.00 W/m2
09:04 15.6 °F 13.2 °F 30.43 in Calm     90% 0.00 in 146.00 W/m2
09:09 16.5 °F 14.3 °F 30.43 in Calm     91% 0.00 in 163.00 W/m2
09:14 17.7 °F 15.8 °F 30.43 in WSW 3.5 mph 0.9 mph 92% 0.00 in 158.00 W/m2
09:19 19.1 °F 17.2 °F 30.44 in WSW 3.5 mph 1.7 mph 92% 0.00 in 153.00 W/m2
09:24 19.8 °F 17.9 °F 30.44 in SW 3.5 mph 1.1 mph 92% 0.00 in 148.00 W/m2
09:29 20.2 °F 18.2 °F 30.44 in SW 3.5 mph 0.1 mph 92% 0.00 in 155.00 W/m2
09:34 20.6 °F 18.6 °F 30.44 in WSW 3.5 mph 1.8 mph 92% 0.00 in 153.00 W/m2
09:39 20.9 °F 18.9 °F 30.44 in WSW 1.2 mph 0.6 mph 92% 0.00 in 158.00 W/m2
09:44 21.1 °F 19.1 °F 30.44 in WSW 3.5 mph 1.0 mph 92% 0.00 in 162.00 W/m2
09:49 21.4 °F 19.4 °F 30.44 in Calm     92% 0.00 in 163.00 W/m2
09:54 21.7 °F 19.7 °F 30.44 in WSW 3.5 mph 1.4 mph 92% 0.00 in 169.00 W/m2
09:59 22.0 °F 20.0 °F 30.44 in WSW 2.3 mph 0.8 mph 92% 0.00 in 167.00 W/m2
10:04 22.3 °F 20.3 °F 30.44 in WSW 2.3 mph 1.0 mph 92% 0.00 in 171.00 W/m2
10:09 22.5 °F 20.5 °F 30.44 in WSW 3.5 mph 0.9 mph 92% 0.00 in 178.00 W/m2
10:14 22.8 °F 20.8 °F 30.44 in WSW 1.2 mph 0.6 mph 92% 0.00 in 185.00 W/m2
10:19 23.1 °F 21.1 °F 30.44 in WSW 2.3 mph 0.3 mph 92% 0.00 in 190.00 W/m2
10:24 23.3 °F 21.3 °F 30.44 in WSW 3.5 mph 1.6 mph 92% 0.00 in 185.00 W/m2
10:29 23.4 °F 21.2 °F 30.43 in WSW 2.3 mph 2.0 mph 91% 0.00 in 197.00 W/m2
10:34 23.7 °F 21.7 °F 30.43 in SW 3.5 mph 1.8 mph 92% 0.00 in 199.00 W/m2
10:39 23.9 °F 21.7 °F 30.43 in WSW 4.0 mph 3.0 mph 91% 0.00 in 207.00 W/m2
10:44 24.0 °F 21.8 °F 30.43 in WSW 3.5 mph 1.7 mph 91% 0.00 in 209.00 W/m2
10:49 24.1 °F 21.9 °F 30.43 in SW 1.2 mph 0.6 mph 91% 0.00 in 220.00 W/m2
10:54 24.2 °F 22.0 °F 30.43 in WSW 2.3 mph 1.4 mph 91% 0.00 in 230.00 W/m2
10:59 24.2 °F 22.0 °F 30.43 in WSW 5.8 mph 3.9 mph 91% 0.00 in 227.00 W/m2
11:04 24.1 °F 21.9 °F 30.42 in WSW 4.0 mph 2.6 mph 91% 0.00 in 230.00 W/m2
11:09 24.2 °F 22.0 °F 30.42 in West 4.6 mph 4.2 mph 91% 0.00 in 232.00 W/m2
11:14 24.3 °F 22.1 °F 30.42 in WSW 4.6 mph 2.6 mph 91% 0.00 in 246.00 W/m2
11:19 24.3 °F 22.1 °F 30.41 in WSW 4.0 mph 3.4 mph 91% 0.00 in 243.00 W/m2
11:24 24.4 °F 22.2 °F 30.41 in West 5.8 mph 3.0 mph 91% 0.00 in 244.00 W/m2
11:29 24.5 °F 22.2 °F 30.41 in North 5.8 mph 2.4 mph 91% 0.00 in 250.00 W/m2
11:34 24.4 °F 22.2 °F 30.41 in WSW 6.0 mph 3.6 mph 91% 0.00 in 237.00 W/m2
11:39 24.4 °F 22.2 °F 30.41 in West 3.5 mph 2.7 mph 91% 0.00 in 234.00 W/m2
11:44 24.3 °F 22.1 °F 30.41 in North 5.8 mph 2.1 mph 91% 0.00 in 223.00 W/m2
11:49 24.2 °F 21.7 °F 30.41 in West 6.9 mph 3.3 mph 90% 0.00 in 223.00 W/m2
11:54 24.1 °F 21.9 °F 30.41 in WNW 4.6 mph 2.2 mph 91% 0.00 in 220.00 W/m2
11:59 24.1 °F 21.6 °F 30.41 in North 5.8 mph 3.5 mph 90% 0.00 in 216.00 W/m2
12:04 24.0 °F 21.5 °F 30.40 in WSW 6.9 mph 4.9 mph 90% 0.00 in 218.00 W/m2
12:09 24.0 °F 21.8 °F 30.40 in WSW 5.8 mph 4.7 mph 91% 0.00 in 216.00 W/m2
12:14 24.1 °F 21.9 °F 30.40 in SW 5.8 mph 2.8 mph 91% 0.00 in 218.00 W/m2
12:19 24.2 °F 22.0 °F 30.39 in West 3.5 mph 1.9 mph 91% 0.00 in 218.00 W/m2
12:24 24.3 °F 22.1 °F 30.39 in SSW 3.5 mph 2.3 mph 91% 0.00 in 227.00 W/m2
12:29 24.3 °F 22.1 °F 30.39 in SW 5.0 mph 2.1 mph 91% 0.00 in 234.00 W/m2
12:34 24.4 °F 21.9 °F 30.39 in SW 8.1 mph 6.4 mph 90% 0.00 in 250.00 W/m2
12:39 24.4 °F 21.9 °F 30.39 in North 9.2 mph 5.0 mph 90% 0.00 in 246.00 W/m2
12:44 24.4 °F 21.9 °F 30.38 in WSW 3.5 mph 1.1 mph 90% 0.00 in 248.00 W/m2
12:49 24.7 °F 22.2 °F 30.38 in WNW 3.5 mph 2.8 mph 90% 0.00 in 248.00 W/m2
12:54 24.7 °F 22.2 °F 30.38 in North 6.9 mph 5.0 mph 90% 0.00 in 243.00 W/m2
12:59 24.9 °F 22.4 °F 30.38 in North 5.8 mph 2.8 mph 90% 0.00 in 237.00 W/m2
13:04 25.0 °F 22.5 °F 30.38 in SW 4.6 mph 3.0 mph 90% 0.00 in 241.00 W/m2
13:09 25.0 °F 22.2 °F 30.38 in North 8.1 mph 3.6 mph 89% 0.00 in 237.00 W/m2
13:14 25.2 °F 22.4 °F 30.38 in North 6.0 mph 4.1 mph 89% 0.00 in 230.00 W/m2
13:19 25.3 °F 22.5 °F 30.37 in North 6.0 mph 1.5 mph 89% 0.00 in 236.00 W/m2
13:24 25.3 °F 22.5 °F 30.37 in WSW 5.8 mph 1.9 mph 89% 0.00 in 232.00 W/m2
13:29 25.5 °F 22.7 °F 30.37 in SW 6.9 mph 3.4 mph 89% 0.00 in 244.00 W/m2
13:34 25.4 °F 22.3 °F 30.37 in WSW 5.8 mph 3.9 mph 88% 0.00 in 244.00 W/m2
13:39 25.6 °F 22.8 °F 30.37 in SSW 3.5 mph 3.1 mph 89% 0.00 in 248.00 W/m2
13:44 25.7 °F 22.9 °F 30.36 in SW 7.0 mph 3.4 mph 89% 0.00 in 248.00 W/m2
13:49 25.6 °F 22.8 °F 30.36 in SW 5.0 mph 3.8 mph 89% 0.00 in 234.00 W/m2
13:54 25.7 °F 22.9 °F 30.36 in North 5.0 mph 2.4 mph 89% 0.00 in 211.00 W/m2
13:59 25.8 °F 23.0 °F 30.36 in North 5.8 mph 3.3 mph 89% 0.00 in 220.00 W/m2
14:04 25.6 °F 22.5 °F 30.36 in WSW 9.2 mph 3.9 mph 88% 0.00 in 211.00 W/m2
14:09 25.6 °F 22.5 °F 30.36 in SSW 4.6 mph 2.0 mph 88% 0.00 in 199.00 W/m2
14:14 25.6 °F 22.5 °F 30.36 in North 4.6 mph 2.4 mph 88% 0.00 in 193.00 W/m2
14:19 25.6 °F 22.5 °F 30.36 in North 6.9 mph 2.3 mph 88% 0.00 in 179.00 W/m2
14:24 25.5 °F 22.4 °F 30.36 in North 3.5 mph 2.1 mph 88% 0.00 in 158.00 W/m2
14:29 25.4 °F 22.3 °F 30.36 in WSW 6.9 mph 3.3 mph 88% 0.00 in 155.00 W/m2
14:34 25.5 °F 22.4 °F 30.36 in WNW 7.0 mph 2.5 mph 88% 0.00 in 151.00 W/m2
14:39 25.4 °F 22.3 °F 30.36 in North 6.9 mph 3.8 mph 88% 0.00 in 153.00 W/m2
14:44 25.5 °F 22.4 °F 30.36 in North 6.0 mph 4.4 mph 88% 0.00 in 142.00 W/m2
14:49 25.5 °F 22.4 °F 30.35 in WSW 5.8 mph 3.5 mph 88% 0.00 in 141.00 W/m2
14:54 25.6 °F 22.5 °F 30.35 in West 4.6 mph 5.0 mph 88% 0.00 in 132.00 W/m2
14:59 25.6 °F 22.5 °F 30.35 in NW 9.2 mph 4.3 mph 88% 0.00 in 116.00 W/m2
15:04 25.6 °F 22.5 °F 30.35 in WSW 5.8 mph 3.3 mph 88% 0.00 in 116.00 W/m2
15:09 25.7 °F 22.6 °F 30.35 in North 9.0 mph 5.0 mph 88% 0.00 in 105.00 W/m2
15:14 25.7 °F 22.6 °F 30.35 in WSW 6.9 mph 5.4 mph 88% 0.00 in 98.00 W/m2
15:19 25.7 °F 22.6 °F 30.35 in North 5.8 mph 3.9 mph 88% 0.00 in 95.00 W/m2
15:24 25.7 °F 22.4 °F 30.35 in North 11.5 mph 4.7 mph 87% 0.00 in 90.00 W/m2
15:29 25.6 °F 22.3 °F 30.35 in West 8.0 mph 4.2 mph 87% 0.00 in 76.00 W/m2
15:34 25.4 °F 22.1 °F 30.35 in WSW 11.5 mph 4.3 mph 87% 0.00 in 69.00 W/m2
15:39 25.3 °F 22.0 °F 30.35 in North 8.1 mph 5.0 mph 87% 0.00 in 69.00 W/m2
15:44 25.1 °F 22.0 °F 30.35 in WSW 6.9 mph 3.1 mph 88% 0.00 in 56.00 W/m2
15:49 24.9 °F 21.8 °F 30.35 in WSW 4.6 mph 3.8 mph 88% 0.00 in 56.00 W/m2
15:54 24.7 °F 21.7 °F 30.34 in WSW 8.1 mph 5.8 mph 88% 0.00 in 47.00 W/m2
15:59 24.5 °F 21.5 °F 30.34 in SW 6.9 mph 5.9 mph 88% 0.00 in 42.00 W/m2
16:04 24.2 °F 21.2 °F 30.34 in SW 11.5 mph 5.7 mph 88% 0.00 in 37.00 W/m2
16:09 23.9 °F 21.1 °F 30.34 in North 6.9 mph 4.2 mph 89% 0.00 in 30.00 W/m2
16:14 23.7 °F 20.9 °F 30.34 in NW 6.9 mph 3.7 mph 89% 0.00 in 23.00 W/m2
16:19 23.4 °F 20.6 °F 30.34 in SSW 9.2 mph 5.3 mph 89% 0.00 in 18.00 W/m2
16:24 23.2 °F 20.4 °F 30.34 in SSW 9.2 mph 4.6 mph 89% 0.00 in 14.00 W/m2
16:29 23.0 °F 20.5 °F 30.34 in WSW 8.1 mph 5.3 mph 90% 0.00 in 11.00 W/m2
16:34 22.9 °F 20.4 °F 30.34 in North 10.4 mph 5.8 mph 90% 0.00 in 7.00 W/m2
16:39 22.8 °F 20.3 °F 30.34 in North 11.5 mph 6.0 mph 90% 0.00 in 0.00 W/m2
16:44 22.7 °F 20.2 °F 30.34 in SW 9.2 mph 5.8 mph 90% 0.00 in 0.00 W/m2
16:49 22.6 °F 20.1 °F 30.35 in North 8.1 mph 5.0 mph 90% 0.00 in 0.00 W/m2
16:54 22.6 °F 20.4 °F 30.35 in WSW 8.1 mph 5.2 mph 91% 0.00 in 0.00 W/m2
16:59 22.6 °F 20.4 °F 30.35 in WSW 8.1 mph 5.4 mph 91% 0.00 in 0.00 W/m2
17:04 22.6 °F 20.4 °F 30.36 in North 4.0 mph 3.7 mph 91% 0.00 in 0.00 W/m2
17:09 22.7 °F 20.5 °F 30.36 in WSW 6.9 mph 3.5 mph 91% 0.00 in 0.00 W/m2
17:14 22.7 °F 20.5 °F 30.36 in SSW 9.2 mph 5.5 mph 91% 0.00 in 0.00 W/m2
17:19 22.6 °F 20.4 °F 30.36 in SW 10.4 mph 7.1 mph 91% 0.00 in 0.00 W/m2
17:24 22.5 °F 20.3 °F 30.36 in SW 11.5 mph 8.1 mph 91% 0.00 in 0.00 W/m2
17:29 22.5 °F 20.3 °F 30.36 in North 10.4 mph 6.3 mph 91% 0.00 in 0.00 W/m2
17:34 22.5 °F 20.3 °F 30.36 in North 10.4 mph 6.4 mph 91% 0.00 in 0.00 W/m2
17:39 22.6 °F 20.6 °F 30.36 in North 10.4 mph 6.2 mph 92% 0.00 in 0.00 W/m2
17:44 22.7 °F 20.5 °F 30.35 in SSW 4.6 mph 2.2 mph 91% 0.00 in 0.00 W/m2
17:49 22.8 °F 20.6 °F 30.35 in SSW 8.1 mph 5.2 mph 91% 0.00 in 0.00 W/m2
17:54 22.8 °F 20.8 °F 30.35 in SSW 4.6 mph 1.6 mph 92% 0.00 in 0.00 W/m2
17:59 22.9 °F 20.9 °F 30.35 in SW 11.5 mph 5.0 mph 92% 0.00 in 0.00 W/m2
18:04 23.0 °F 21.0 °F 30.35 in SSW 8.1 mph 2.8 mph 92% 0.00 in 0.00 W/m2
18:09 23.0 °F 21.0 °F 30.35 in SW 6.9 mph 4.1 mph 92% 0.00 in 0.00 W/m2
18:14 23.0 °F 21.0 °F 30.35 in WSW 9.2 mph 5.8 mph 92% 0.00 in 0.00 W/m2
18:19 23.0 °F 21.0 °F 30.35 in SSW 7.0 mph 4.1 mph 92% 0.00 in 0.00 W/m2
18:24 23.0 °F 20.8 °F 30.36 in North 11.5 mph 5.4 mph 91% 0.00 in 0.00 W/m2
18:29 22.9 °F 20.7 °F 30.36 in WSW 8.1 mph 4.8 mph 91% 0.00 in 0.00 W/m2
18:34 22.7 °F 20.5 °F 30.36 in North 10.0 mph 7.1 mph 91% 0.00 in 0.00 W/m2
18:39 22.6 °F 20.4 °F 30.36 in North 9.2 mph 4.7 mph 91% 0.00 in 0.00 W/m2
18:44 22.6 °F 20.4 °F 30.36 in North 10.4 mph 4.1 mph 91% 0.00 in 0.00 W/m2
18:49 22.7 °F 20.7 °F 30.36 in SSW 6.9 mph 5.5 mph 92% 0.00 in 0.00 W/m2
18:54 22.7 °F 20.7 °F 30.36 in North 9.2 mph 4.8 mph 92% 0.00 in 0.00 W/m2
18:59 22.7 °F 20.7 °F 30.36 in North 6.9 mph 5.1 mph 92% 0.00 in 0.00 W/m2
19:04 22.7 °F 20.7 °F 30.36 in SW 10.4 mph 6.8 mph 92% 0.00 in 0.00 W/m2
19:09 22.8 °F 20.8 °F 30.36 in WSW 8.1 mph 4.5 mph 92% 0.00 in 0.00 W/m2
19:14 22.7 °F 20.7 °F 30.36 in SW 7.0 mph 6.6 mph 92% 0.00 in 0.00 W/m2
19:19 22.7 °F 20.5 °F 30.35 in North 8.1 mph 5.7 mph 91% 0.00 in 0.00 W/m2
19:24 22.8 °F 20.8 °F 30.35 in North 4.6 mph 2.5 mph 92% 0.00 in 0.00 W/m2
19:29 22.8 °F 20.6 °F 30.35 in North 6.9 mph 4.2 mph 91% 0.00 in 0.00 W/m2
19:34 22.8 °F 20.6 °F 30.35 in North 9.0 mph 4.8 mph 91% 0.00 in 0.00 W/m2
19:39 22.8 °F 20.6 °F 30.35 in WNW 9.2 mph 2.5 mph 91% 0.00 in 0.00 W/m2
19:44 22.9 °F 20.7 °F 30.35 in West 8.1 mph 3.2 mph 91% 0.00 in 0.00 W/m2
19:49 22.9 °F 20.7 °F 30.35 in WSW 3.5 mph 2.5 mph 91% 0.00 in 0.00 W/m2
19:54 23.0 °F 20.8 °F 30.34 in West 10.4 mph 3.7 mph 91% 0.00 in 0.00 W/m2
19:59 23.0 °F 20.8 °F 30.34 in SW 4.6 mph 3.2 mph 91% 0.00 in 0.00 W/m2
20:04 23.0 °F 20.8 °F 30.34 in SW 8.1 mph 5.3 mph 91% 0.00 in 0.00 W/m2
20:09 23.0 °F 20.8 °F 30.34 in West 10.4 mph 5.8 mph 91% 0.00 in 0.00 W/m2
20:14 23.1 °F 20.9 °F 30.34 in North 6.0 mph 4.0 mph 91% 0.00 in 0.00 W/m2
20:19 23.0 °F 20.8 °F 30.34 in North 3.5 mph 2.9 mph 91% 0.00 in 0.00 W/m2
20:24 23.0 °F 20.8 °F 30.34 in North 5.8 mph 4.7 mph 91% 0.00 in 0.00 W/m2
20:29 23.1 °F 20.9 °F 30.34 in WSW 10.4 mph 6.0 mph 91% 0.00 in 0.00 W/m2
20:34 23.1 °F 20.9 °F 30.34 in SW 5.8 mph 3.6 mph 91% 0.00 in 0.00 W/m2
20:39 23.2 °F 21.0 °F 30.34 in WSW 6.0 mph 4.6 mph 91% 0.00 in 0.00 W/m2
20:44 23.3 °F 21.1 °F 30.34 in WSW 8.1 mph 4.2 mph 91% 0.00 in 0.00 W/m2
20:49 23.3 °F 21.1 °F 30.34 in West 8.1 mph 3.2 mph 91% 0.00 in 0.00 W/m2
20:54 23.4 °F 21.2 °F 30.34 in WNW 3.5 mph 0.9 mph 91% 0.00 in 0.00 W/m2
20:59 23.4 °F 21.2 °F 30.34 in WSW 4.6 mph 3.7 mph 91% 0.00 in 0.00 W/m2
21:04 23.5 °F 21.3 °F 30.34 in West 4.6 mph 2.2 mph 91% 0.00 in 0.00 W/m2
21:09 23.5 °F 21.3 °F 30.34 in SW 6.9 mph 3.5 mph 91% 0.00 in 0.00 W/m2
21:14 23.4 °F 21.2 °F 30.34 in North 11.0 mph 5.7 mph 91% 0.00 in 0.00 W/m2
21:19 23.3 °F 21.1 °F 30.34 in North 10.4 mph 5.3 mph 91% 0.00 in 0.00 W/m2
21:24 23.3 °F 21.1 °F 30.34 in North 3.5 mph 3.0 mph 91% 0.00 in 0.00 W/m2
21:29 23.4 °F 21.2 °F 30.34 in West 5.8 mph 2.8 mph 91% 0.00 in 0.00 W/m2
21:34 23.4 °F 21.2 °F 30.34 in SW 5.0 mph 3.0 mph 91% 0.00 in 0.00 W/m2
21:39 23.5 °F 21.3 °F 30.33 in SW 4.6 mph 2.6 mph 91% 0.00 in 0.00 W/m2
21:44 23.5 °F 21.3 °F 30.34 in North 4.6 mph 3.1 mph 91% 0.00 in 0.00 W/m2
21:49 23.6 °F 21.4 °F 30.34 in North 6.9 mph 3.2 mph 91% 0.00 in 0.00 W/m2
21:54 23.6 °F 21.4 °F 30.34 in SW 4.6 mph 2.0 mph 91% 0.00 in 0.00 W/m2
21:59 23.7 °F 21.5 °F 30.34 in West 3.5 mph 3.0 mph 91% 0.00 in 0.00 W/m2
22:04 23.8 °F 21.6 °F 30.33 in North 4.0 mph 3.0 mph 91% 0.00 in 0.00 W/m2
22:09 23.8 °F 21.6 °F 30.33 in North 5.8 mph 2.8 mph 91% 0.00 in 0.00 W/m2
22:14 23.9 °F 21.7 °F 30.33 in SW 3.5 mph 2.3 mph 91% 0.00 in 0.00 W/m2
22:19 23.9 °F 21.7 °F 30.33 in SW 4.6 mph 4.2 mph 91% 0.00 in 0.00 W/m2
22:24 24.1 °F 21.9 °F 30.33 in WSW 8.1 mph 3.9 mph 91% 0.00 in 0.00 W/m2
22:29 24.2 °F 22.0 °F 30.33 in WSW 3.5 mph 2.0 mph 91% 0.00 in 0.00 W/m2
22:34 24.3 °F 22.1 °F 30.33 in WSW 7.0 mph 4.1 mph 91% 0.00 in 0.00 W/m2
22:39 24.3 °F 22.3 °F 30.33 in WSW 4.6 mph 1.7 mph 92% 0.00 in 0.00 W/m2
22:44 24.4 °F 22.2 °F 30.33 in North 5.8 mph 2.7 mph 91% 0.00 in 0.00 W/m2
22:49 24.4 °F 22.4 °F 30.33 in WSW 3.5 mph 2.7 mph 92% 0.00 in 0.00 W/m2
22:54 24.5 °F 22.5 °F 30.33 in North 4.6 mph 2.1 mph 92% 0.00 in 0.00 W/m2
22:59 24.7 °F 22.7 °F 30.33 in West 4.6 mph 1.4 mph 92% 0.00 in 0.00 W/m2
23:04 24.7 °F 22.7 °F 30.33 in WSW 8.1 mph 3.7 mph 92% 0.00 in 0.00 W/m2
23:09 24.7 °F 22.7 °F 30.32 in North 4.0 mph 2.7 mph 92% 0.00 in 0.00 W/m2
23:14 24.7 °F 22.7 °F 30.32 in WSW 3.5 mph 1.1 mph 92% 0.00 in 0.00 W/m2
23:19 24.7 °F 22.7 °F 30.32 in WSW 3.5 mph 3.4 mph 92% 0.00 in 0.00 W/m2
23:24 24.7 °F 22.7 °F 30.32 in SW 3.5 mph 1.5 mph 92% 0.00 in 0.00 W/m2
23:29 24.8 °F 22.8 °F 30.32 in SW 4.6 mph 1.8 mph 92% 0.00 in 0.00 W/m2
23:34 24.9 °F 22.9 °F 30.32 in WSW 9.2 mph 4.3 mph 92% 0.00 in 0.00 W/m2
23:39 25.0 °F 23.3 °F 30.32 in WSW 6.0 mph 4.4 mph 93% 0.00 in 0.00 W/m2
23:44 25.1 °F 23.1 °F 30.32 in WSW 4.6 mph 2.7 mph 92% 0.00 in 0.00 W/m2
23:49 25.1 °F 23.4 °F 30.31 in WSW 3.5 mph 0.6 mph 93% 0.00 in 0.00 W/m2
23:54 25.2 °F 23.5 °F 30.31 in North 4.6 mph 3.1 mph 93% 0.00 in 0.00 W/m2
23:59 25.3 °F 23.6 °F 30.31 in West 4.6 mph 3.1 mph 93% 0.00 in 0.00 W/m2
Bourbonnais, Illinois, USA
Compliments of Weather Underground - 4 mb